< < Back
Terminal Aerodrome Forecast


Current Version              Previous Versions:   1  2  3  4  5  6  7  8  9  

Terminal Aerodrome Forecast

692
FTUS42 KTAE 272300
TAFDHN
TAF
KDHN 272321Z 2800/2824 24007KT P6SM SCT250
     FM281400 27015KT P6SM SCT030
     FM281800 27015KT P6SM VCTS BKN050CB
     FM282100 VRB25G40KT 1SM +TSRA BKN005 OVC030CB=

Latest METAR

187
SAUS70 KWBC 281000 RRA
MTRDHN
METAR KDHN 280953Z AUTO 25004KT 8SM CLR 25/24 A3004 RMK AO2 SLP165
T02500239


USA.gov is the U.S. government's official web portal to all federal, state and local government web resources and services.